Time;durP1;ratioP1;P1;durP2;ratioP2;P2;SDS_P1;SDS_P2;PMS_P1;PMS_P2;Temp;Humidity;BMP_temperature;BMP_pressure;BME280_temperature;BME280_humidity;BME280_pressure;Samples;Min_cycle;Max_cycle;Signal;HPM_P1;HPM_P2
2021/01/02 00:00:18;;;;;;;44.13;30.20;;;;;;;0.34;100.00;95269.09;1032163;28;20026;-72
2021/01/02 00:00:49;;;;;;;52.80;33.25;;;;;;;0.29;100.00;95258.16;1036179;28;20386;-72
2021/01/02 00:01:20;;;;;;;51.40;31.73;;;;;;;0.34;100.00;95262.22;1036089;28;20294;-72
2021/01/02 00:01:59;;;;;;;46.72;30.77;;;;;;;0.37;100.00;95266.38;1036058;28;20699;-72
2021/01/02 00:02:50;;;;;;;54.40;32.78;;;;;;;0.36;100.00;95267.31;1040169;28;20061;-72
2021/01/02 00:03:31;;;;;;;50.97;31.92;;;;;;;0.38;100.00;95270.66;1040084;28;20266;-72
2021/01/02 00:04:22;;;;;;;50.03;31.70;;;;;;;0.45;100.00;95268.63;1040480;28;20256;-72
2021/01/02 00:05:02;;;;;;;49.92;30.55;;;;;;;0.41;100.00;95267.94;1040258;28;20248;-72
2021/01/02 00:05:44;;;;;;;55.90;33.05;;;;;;;0.36;100.00;95267.31;1044278;28;20680;-72
2021/01/02 00:06:20;;;;;;;46.42;30.75;;;;;;;0.42;100.00;95267.03;1044397;28;20449;-72
2021/01/02 00:06:57;;;;;;;54.50;32.42;;;;;;;0.41;100.00;95265.34;1032072;28;20254;-72
2021/01/02 00:07:37;;;;;;;53.83;34.08;;;;;;;0.37;100.00;95267.22;1028072;28;20290;-72
2021/01/02 00:08:15;;;;;;;54.25;33.60;;;;;;;0.37;100.00;95268.97;1036213;28;20370;-72
2021/01/02 00:08:49;;;;;;;50.85;32.65;;;;;;;0.35;100.00;95270.78;1036225;28;20033;-73
2021/01/02 00:09:21;;;;;;;51.55;32.85;;;;;;;0.33;100.00;95270.00;1044485;28;20251;-73
2021/01/02 00:09:54;;;;;;;56.08;34.05;;;;;;;0.34;100.00;95269.09;1040192;28;20283;-73
2021/01/02 00:10:31;;;;;;;49.33;32.00;;;;;;;0.38;100.00;95271.47;1036279;28;20608;-73
2021/01/02 00:11:09;;;;;;;53.08;33.17;;;;;;;0.35;100.00;95270.78;1036155;28;20268;-72
2021/01/02 00:11:42;;;;;;;51.10;31.15;;;;;;;0.30;100.00;95265.81;1032016;28;20317;-72
2021/01/02 00:12:23;;;;;;;51.50;32.78;;;;;;;0.33;100.00;95257.13;1036050;28;20260;-73
2021/01/02 00:13:13;;;;;;;52.67;32.20;;;;;;;0.40;100.00;95268.84;1040343;28;20279;-72
2021/01/02 00:14:02;;;;;;;50.28;32.33;;;;;;;0.34;100.00;95272.50;1035973;28;20360;-73
2021/01/02 00:14:42;;;;;;;49.83;31.40;;;;;;;0.37;100.00;95266.38;1036150;28;20026;-73
2021/01/02 00:15:17;;;;;;;50.30;32.38;;;;;;;0.40;100.00;95274.00;1040329;28;20789;-72
2021/01/02 00:15:59;;;;;;;53.15;33.20;;;;;;;0.35;100.00;95269.03;1040000;28;20060;-73
2021/01/02 00:16:46;;;;;;;53.42;31.95;;;;;;;0.37;100.00;95272.38;1036224;28;20273;-73
2021/01/02 00:17:22;;;;;;;48.65;29.88;;;;;;;0.31;100.00;95264.91;1036277;28;20351;-73
2021/01/02 00:18:12;;;;;;;49.35;30.83;;;;;;;0.35;100.00;95271.59;1032128;28;20291;-72
2021/01/02 00:19:02;;;;;;;54.95;31.95;;;;;;;0.34;100.00;95282.00;1032120;28;20379;-72
2021/01/02 00:19:52;;;;;;;51.40;31.88;;;;;;;0.35;100.00;95274.16;1036131;28;20026;-73
2021/01/02 00:20:41;;;;;;;55.47;33.15;;;;;;;0.27;100.00;95273.66;1040278;28;20021;-73
2021/01/02 00:21:24;;;;;;;52.53;31.60;;;;;;;0.24;100.00;95273.78;1036067;28;20025;-73
2021/01/02 00:22:05;;;;;;;56.70;34.63;;;;;;;0.25;100.00;95277.22;1036352;28;20702;-72
2021/01/02 00:22:47;;;;;;;52.70;33.35;;;;;;;0.32;100.00;95276.91;1031989;28;20324;-72
2021/01/02 00:23:37;;;;;;;52.03;34.13;;;;;;;0.27;100.00;95271.09;1036129;28;20268;-73
2021/01/02 00:24:28;;;;;;;54.63;33.05;;;;;;;0.26;100.00;95281.44;1036125;28;20462;-72
2021/01/02 00:25:00;;;;;;;48.55;30.42;;;;;;;0.24;100.00;95278.09;1032182;28;20030;-73
2021/01/02 00:25:31;;;;;;;55.28;32.50;;;;;;;0.24;100.00;95278.94;1031987;28;20253;-73
2021/01/02 00:26:15;;;;;;;48.42;33.15;;;;;;;0.24;100.00;95278.09;1044369;28;20256;-73
2021/01/02 00:26:46;;;;;;;56.53;34.20;;;;;;;0.23;100.00;95276.44;1036038;28;20062;-73
2021/01/02 00:27:28;;;;;;;54.10;33.55;;;;;;;0.19;100.00;95271.41;1044419;28;20259;-73
2021/01/02 00:28:17;;;;;;;51.17;32.67;;;;;;;0.24;100.00;95280.69;1044395;28;20287;-72
2021/01/02 00:28:59;;;;;;;49.85;31.75;;;;;;;0.27;100.00;95275.41;1036114;28;20662;-72
2021/01/02 00:29:44;;;;;;;51.17;31.80;;;;;;;0.28;100.00;95275.34;1036160;28;20029;-73
2021/01/02 00:30:26;;;;;;;53.53;31.70;;;;;;;0.27;100.00;95278.00;1036202;28;20303;-72
2021/01/02 00:31:09;;;;;;;50.05;31.23;;;;;;;0.26;100.00;95278.88;1036021;28;20332;-72
2021/01/02 00:31:59;;;;;;;53.13;32.45;;;;;;;0.28;100.00;95279.66;1036099;28;20343;-73
2021/01/02 00:32:37;;;;;;;53.13;31.70;;;;;;;0.23;100.00;95279.84;1040161;28;20287;-73
2021/01/02 00:33:18;;;;;;;54.33;33.90;;;;;;;0.25;100.00;95278.03;1044231;28;20599;-73
2021/01/02 00:34:07;;;;;;;51.20;31.83;;;;;;;0.28;100.00;95277.94;1044210;28;20317;-73
2021/01/02 00:34:45;;;;;;;49.17;31.85;;;;;;;0.26;100.00;95276.28;1031917;28;20253;-73
2021/01/02 00:35:17;;;;;;;48.28;31.58;;;;;;;0.19;100.00;95262.84;1036261;28;20327;-73
2021/01/02 00:35:49;;;;;;;49.35;31.30;;;;;;;0.24;100.00;95272.94;1044215;28;20374;-72
2021/01/02 00:36:25;;;;;;;48.92;33.33;;;;;;;0.25;100.00;95277.22;1036172;28;20764;-73
2021/01/02 00:37:09;;;;;;;49.20;32.13;;;;;;;0.27;100.00;95267.69;1040034;28;20257;-73
2021/01/02 00:37:42;;;;;;;50.78;32.33;;;;;;;0.31;100.00;95275.22;1044247;28;20359;-71
2021/01/02 00:38:23;;;;;;;48.58;31.35;;;;;;;0.31;100.00;95271.81;1040179;28;20272;-73
2021/01/02 00:38:54;;;;;;;49.08;31.20;;;;;;;0.27;100.00;95270.25;1032024;28;20258;-73
2021/01/02 00:39:38;;;;;;;52.08;33.35;;;;;;;0.27;100.00;95267.69;1036038;28;20026;-73
2021/01/02 00:40:10;;;;;;;52.65;33.08;;;;;;;0.21;100.00;95271.34;1044348;28;20517;-73
2021/01/02 00:40:41;;;;;;;51.80;33.10;;;;;;;0.13;100.00;95261.34;1032030;28;20682;-72
2021/01/02 00:41:12;;;;;;;49.08;33.05;;;;;;;0.24;100.00;95270.38;1035965;28;20249;-73
2021/01/02 00:41:43;;;;;;;52.40;34.10;;;;;;;0.15;100.00;95263.84;1032098;28;20027;-73
2021/01/02 00:42:14;;;;;;;53.67;33.40;;;;;;;0.16;100.00;95268.94;1035995;28;20050;-73
2021/01/02 00:42:46;;;;;;;51.33;33.88;;;;;;;0.14;100.00;95269.91;1036125;28;20018;-72
2021/01/02 00:43:17;;;;;;;53.30;34.53;;;;;;;0.17;100.00;95273.22;1039988;28;20029;-72
2021/01/02 00:43:48;;;;;;;50.83;33.10;;;;;;;0.15;100.00;95269.84;1044374;28;20268;-73
2021/01/02 00:44:19;;;;;;;49.47;32.05;;;;;;;0.17;100.00;95272.38;1040445;28;20025;-73
2021/01/02 00:44:50;;;;;;;55.67;32.97;;;;;;;0.16;100.00;95261.22;1036110;28;20025;-72
2021/01/02 00:45:22;;;;;;;54.65;34.40;;;;;;;0.16;100.00;95270.69;1035850;28;20262;-72
2021/01/02 00:45:53;;;;;;;57.03;34.60;;;;;;;0.17;100.00;95278.34;1032017;28;20117;-73
2021/01/02 00:46:24;;;;;;;51.80;34.33;;;;;;;0.19;100.00;95273.16;1036067;28;20257;-73
2021/01/02 00:46:55;;;;;;;54.38;33.60;;;;;;;0.16;100.00;95271.50;1028077;28;20027;-73
2021/01/02 00:47:27;;;;;;;58.28;33.63;;;;;;;0.14;100.00;95273.31;1035957;28;20028;-73
2021/01/02 00:47:58;;;;;;;50.67;32.83;;;;;;;0.19;100.00;95275.72;1040210;28;20096;-72
2021/01/02 00:48:29;;;;;;;48.72;32.58;;;;;;;0.23;100.00;95282.41;1036146;28;20273;-72
2021/01/02 00:49:00;;;;;;;55.72;34.83;;;;;;;0.23;100.00;95277.28;1035954;28;20077;-73
2021/01/02 00:49:31;;;;;;;54.97;33.80;;;;;;;0.28;100.00;95283.09;1032003;28;20407;-73
2021/01/02 00:50:03;;;;;;;55.30;34.10;;;;;;;0.26;100.00;95274.53;1036101;28;20261;-73
2021/01/02 00:50:34;;;;;;;51.88;32.63;;;;;;;0.28;100.00;95277.94;1032078;28;20257;-73
2021/01/02 00:51:04;;;;;;;54.42;34.65;;;;;;;0.21;100.00;95280.78;1040063;28;20701;-73
2021/01/02 00:51:41;;;;;;;53.42;34.03;;;;;;;0.24;100.00;95281.50;1035933;28;20398;-73
2021/01/02 00:52:22;;;;;;;53.50;34.28;;;;;;;0.25;100.00;95282.38;1040122;28;20032;-73
2021/01/02 00:53:04;;;;;;;54.58;34.33;;;;;;;0.23;100.00;95274.69;1032132;28;20323;-72
2021/01/02 00:53:47;;;;;;;52.90;33.20;;;;;;;0.29;100.00;95284.75;1035857;28;20257;-73
2021/01/02 00:54:27;;;;;;;58.17;33.75;;;;;;;0.29;100.00;95279.59;1036010;28;20261;-72
2021/01/02 00:55:06;;;;;;;56.33;34.35;;;;;;;0.26;100.00;95278.88;1040172;28;20252;-73
2021/01/02 00:55:54;;;;;;;61.38;34.80;;;;;;;0.15;100.00;95274.16;1031873;28;20027;-73
2021/01/02 00:56:28;;;;;;;53.40;30.75;;;;;;;0.18;100.00;95286.91;1040293;28;20076;-73
2021/01/02 00:57:02;;;;;;;57.97;34.65;;;;;;;0.11;100.00;95278.63;1036173;28;20265;-73
2021/01/02 00:57:49;;;;;;;52.95;34.08;;;;;;;0.11;100.00;95277.75;1031873;28;20261;-73
2021/01/02 00:58:22;;;;;;;57.85;34.97;;;;;;;0.13;100.00;95279.38;1032008;28;20353;-73
2021/01/02 00:59:12;;;;;;;55.47;36.13;;;;;;;0.15;100.00;95280.16;1044231;28;20264;-73
2021/01/02 01:00:03;;;;;;;60.63;35.63;;;;;;;0.12;100.00;95277.69;1031898;28;20269;-73
2021/01/02 01:00:35;;;;;;;59.88;35.25;;;;;;;0.14;100.00;95283.63;1037562;28;20030;-73
2021/01/02 01:01:06;;;;;;;62.40;35.80;;;;;;;0.10;100.00;95278.66;1036020;28;20771;-73
2021/01/02 01:01:49;;;;;;;55.70;35.40;;;;;;;0.09;100.00;95280.38;1031836;28;20280;-73
2021/01/02 01:02:39;;;;;;;57.78;34.45;;;;;;;0.07;100.00;95273.63;1032064;28;20254;-72
2021/01/02 01:03:20;;;;;;;62.08;35.55;;;;;;;0.03;100.00;95274.66;1036331;28;20359;-73
2021/01/02 01:04:14;;;;;;;56.55;34.40;;;;;;;0.02;100.00;95276.41;1035961;28;20034;-73
2021/01/02 01:04:49;;;;;;;62.25;35.90;;;;;;;0.05;100.00;95273.69;1040180;28;20712;-73
2021/01/02 01:05:20;;;;;;;65.22;38.00;;;;;;;0.04;100.00;95276.31;1040130;28;20260;-73
2021/01/02 01:05:51;;;;;;;61.78;36.45;;;;;;;0.03;100.00;95272.09;1039986;28;20295;-72
2021/01/02 01:06:22;;;;;;;61.17;37.38;;;;;;;0.07;100.00;95284.75;1040051;28;20350;-73
2021/01/02 01:07:03;;;;;;;53.85;34.95;;;;;;;0.09;100.00;95275.22;1040111;28;20021;-73
2021/01/02 01:07:35;;;;;;;61.97;36.75;;;;;;;0.10;100.00;95283.81;1040169;28;20264;-73
2021/01/02 01:08:06;;;;;;;64.50;37.13;;;;;;;0.06;100.00;95280.53;1039867;28;20296;-73
2021/01/02 01:08:42;;;;;;;60.60;36.63;;;;;;;0.05;100.00;95280.56;1040041;28;20268;-73
2021/01/02 01:09:14;;;;;;;66.90;38.95;;;;;;;0.03;100.00;95280.63;1044317;28;20055;-73
2021/01/02 01:09:48;;;;;;;55.35;34.53;;;;;;;0.08;100.00;95288.19;1040270;28;20263;-73
2021/01/02 01:10:22;;;;;;;55.83;35.33;;;;;;;0.11;100.00;95281.19;1031931;28;20276;-72
2021/01/02 01:10:53;;;;;;;65.13;39.60;;;;;;;0.10;100.00;95281.25;1035960;28;20273;-73
2021/01/02 01:11:23;;;;;;;62.92;37.65;;;;;;;0.05;100.00;95283.97;1032075;28;20269;-73
2021/01/02 01:11:54;;;;;;;61.78;38.03;;;;;;;0.02;100.00;95278.97;1040049;28;20025;-73
2021/01/02 01:12:27;;;;;;;69.57;40.28;;;;;;;0.01;100.00;95285.00;1031853;28;20061;-73
2021/01/02 01:13:06;;;;;;;63.17;38.83;;;;;;;0.04;100.00;95291.75;1036055;28;20026;-73
2021/01/02 01:13:37;;;;;;;71.18;39.50;;;;;;;0.04;100.00;95286.63;1040070;28;20313;-73
2021/01/02 01:14:08;;;;;;;61.25;36.17;;;;;;;-0.02;100.00;95293.72;1031973;28;20299;-73
2021/01/02 01:14:39;;;;;;;55.33;36.50;;;;;;;0.02;100.00;95291.84;1040097;28;20261;-72
2021/01/02 01:15:10;;;;;;;58.47;35.00;;;;;;;0.07;100.00;95282.19;1040019;28;20023;-73
2021/01/02 01:15:41;;;;;;;63.90;39.40;;;;;;;0.06;100.00;95287.41;1040019;28;20032;-73
2021/01/02 01:16:12;;;;;;;68.32;38.17;;;;;;;0.07;100.00;95292.47;1023807;28;20275;-73
2021/01/02 01:16:43;;;;;;;64.72;39.38;;;;;;;0.08;100.00;95281.28;1031835;28;20038;-73
2021/01/02 01:17:23;;;;;;;58.90;35.70;;;;;;;0.09;100.00;95287.28;1031956;28;20018;-73
2021/01/02 01:17:56;;;;;;;62.30;36.65;;;;;;;0.04;100.00;95291.75;1023922;28;20262;-73
2021/01/02 01:18:37;;;;;;;62.75;35.80;;;;;;;0.03;100.00;95290.94;1027806;28;20337;-73
2021/01/02 01:19:08;;;;;;;65.22;34.88;;;;;;;0.04;100.00;95292.63;1027879;28;20663;-72
2021/01/02 01:19:39;;;;;;;71.30;38.88;;;;;;;0.04;100.00;95287.47;1027922;28;20310;-73
2021/01/02 01:20:11;;;;;;;57.72;37.55;;;;;;;0.02;100.00;95294.44;1031948;28;20034;-72
2021/01/02 01:20:45;;;;;;;64.07;37.88;;;;;;;-0.08;100.00;95272.50;1027879;28;20033;-73
2021/01/02 01:21:16;;;;;;;60.95;36.05;;;;;;;0.02;100.00;95291.84;1031802;28;20664;-73
2021/01/02 01:21:50;;;;;;;63.00;38.30;;;;;;;0.02;100.00;95293.56;1036133;28;20454;-73
2021/01/02 01:22:24;;;;;;;59.15;35.58;;;;;;;0.01;100.00;95294.47;1023763;28;20275;-72
2021/01/02 01:23:04;;;;;;;62.00;37.60;;;;;;;0.00;100.00;95296.22;1031847;28;20670;-73
2021/01/02 01:23:36;;;;;;;59.58;35.85;;;;;;;-0.03;100.00;95286.88;1028018;28;20262;-73
2021/01/02 01:24:16;;;;;;;59.58;35.53;;;;;;;-0.01;100.00;95287.66;1027904;28;20026;-73
2021/01/02 01:24:48;;;;;;;56.53;34.03;;;;;;;0.04;100.00;95292.63;1040052;28;20267;-73
2021/01/02 01:25:39;;;;;;;56.70;35.38;;;;;;;0.09;100.00;95289.84;1027933;28;20031;-73
2021/01/02 01:26:18;;;;;;;54.22;33.00;;;;;;;0.08;100.00;95283.88;1027947;28;20344;-73
2021/01/02 01:27:11;;;;;;;55.25;34.45;;;;;;;0.12;100.00;95295.72;1031609;28;20034;-73
2021/01/02 01:27:48;;;;;;;59.78;35.85;;;;;;;0.10;100.00;95296.69;1027990;28;20649;-73
2021/01/02 01:28:19;;;;;;;53.80;34.40;;;;;;;0.10;100.00;95297.53;1027922;28;20309;-73
2021/01/02 01:28:55;;;;;;;64.60;37.33;;;;;;;0.07;100.00;95296.81;1031715;28;20387;-73
2021/01/02 01:29:32;;;;;;;57.17;33.25;;;;;;;0.05;100.00;95288.31;1028000;28;20269;-73
2021/01/02 01:30:03;;;;;;;55.78;34.28;;;;;;;0.05;100.00;95299.44;1035934;28;20257;-73
2021/01/02 01:30:38;;;;;;;64.38;37.50;;;;;;;0.01;100.00;95300.47;1031963;28;20769;-73
2021/01/02 01:31:10;;;;;;;58.53;35.20;;;;;;;-0.06;100.00;95289.56;1031742;28;20714;-73
2021/01/02 01:31:44;;;;;;;67.32;37.72;;;;;;;-0.04;100.00;95292.94;1035998;28;20269;-73
2021/01/02 01:32:19;;;;;;;68.47;39.22;;;;;;;-0.06;100.00;95289.56;1031877;28;20274;-72
2021/01/02 01:33:01;;;;;;;63.75;38.10;;;;;;;0.05;100.00;95299.44;1031608;28;20265;-72
2021/01/02 01:33:32;;;;;;;63.53;36.75;;;;;;;0.00;100.00;95303.97;1027881;28;20258;-72
2021/01/02 01:34:02;;;;;;;66.03;37.22;;;;;;;-0.05;100.00;95293.00;1027722;28;20738;-73
2021/01/02 01:34:33;;;;;;;60.88;34.78;;;;;;;-0.01;100.00;95303.09;1035841;28;20025;-72
2021/01/02 01:35:05;;;;;;;59.65;36.65;;;;;;;-0.02;100.00;95301.44;1027776;28;20026;-73
2021/01/02 01:35:36;;;;;;;53.42;33.92;;;;;;;0.01;100.00;95302.22;1027859;28;20262;-72
2021/01/02 01:36:08;;;;;;;59.60;35.92;;;;;;;0.00;100.00;95298.81;1023805;28;20286;-73
2021/01/02 01:36:41;;;;;;;59.35;34.92;;;;;;;0.00;100.00;95303.97;1027907;28;20274;-73
2021/01/02 01:37:16;;;;;;;59.90;33.90;;;;;;;0.04;100.00;95302.94;1027634;28;20258;-72
2021/01/02 01:37:47;;;;;;;58.67;33.88;;;;;;;0.04;100.00;95302.94;1031837;28;20356;-73
2021/01/02 01:38:17;;;;;;;62.25;37.50;;;;;;;-0.09;100.00;95274.25;1027761;28;20265;-73
2021/01/02 01:38:52;;;;;;;51.45;33.97;;;;;;;0.05;100.00;95296.88;1031932;28;20594;-73
2021/01/02 01:39:23;;;;;;;57.78;36.47;;;;;;;0.09;100.00;95292.44;1027805;28;20042;-72
2021/01/02 01:39:54;;;;;;;58.25;36.40;;;;;;;0.07;100.00;95304.53;1027937;28;20270;-73
2021/01/02 01:40:26;;;;;;;59.28;35.85;;;;;;;0.04;100.00;95304.66;1035932;28;20257;-73
2021/01/02 01:41:11;;;;;;;57.40;34.53;;;;;;;0.08;100.00;95298.50;1027803;28;20109;-73
2021/01/02 01:41:43;;;;;;;60.25;35.92;;;;;;;0.04;100.00;95294.34;1031603;28;20262;-72
2021/01/02 01:42:15;;;;;;;58.65;35.38;;;;;;;0.04;100.00;95297.78;1027882;28;20266;-72
2021/01/02 01:42:46;;;;;;;56.13;34.08;;;;;;;-0.03;100.00;95297.16;1027975;28;20285;-73
2021/01/02 01:43:40;;;;;;;52.53;33.03;;;;;;;0.01;100.00;95297.06;1027920;28;20425;-73
2021/01/02 01:44:20;;;;;;;59.05;33.90;;;;;;;0.02;100.00;95299.56;1023939;28;20536;-73
2021/01/02 01:44:52;;;;;;;53.08;32.45;;;;;;;0.06;100.00;95295.16;1027835;28;20270;-72
2021/01/02 01:45:26;;;;;;;55.38;33.63;;;;;;;0.01;100.00;95297.06;1031813;28;20023;-72
2021/01/02 01:46:14;;;;;;;60.10;36.38;;;;;;;0.04;100.00;95302.94;1035971;28;20269;-72
2021/01/02 01:46:52;;;;;;;57.92;35.10;;;;;;;0.01;100.00;95303.03;1031882;28;20272;-72
2021/01/02 01:47:35;;;;;;;62.35;36.80;;;;;;;0.04;100.00;95302.94;1035750;28;20319;-73
2021/01/02 01:48:09;;;;;;;59.60;35.28;;;;;;;0.04;100.00;95304.66;1023818;28;20354;-73
2021/01/02 01:49:00;;;;;;;58.38;35.67;;;;;;;0.02;100.00;95304.72;1023751;28;20302;-73
2021/01/02 01:49:31;;;;;;;59.20;34.40;;;;;;;-0.02;100.00;95292.84;1019887;28;20275;-73
2021/01/02 01:50:19;;;;;;;56.15;34.05;;;;;;;0.04;100.00;95302.06;1031667;28;20100;-72
2021/01/02 01:51:11;;;;;;;52.90;32.47;;;;;;;0.09;100.00;95301.00;1036040;28;20761;-73
2021/01/02 01:51:59;;;;;;;61.47;34.33;;;;;;;0.01;100.00;95303.03;1031705;28;20316;-72
2021/01/02 01:52:47;;;;;;;51.63;32.40;;;;;;;0.07;100.00;95304.53;1023667;28;20273;-73
2021/01/02 01:53:37;;;;;;;59.15;33.15;;;;;;;0.05;100.00;95296.88;1027753;28;20269;-73
2021/01/02 01:54:21;;;;;;;54.85;33.70;;;;;;;0.03;100.00;95300.41;1031623;28;20273;-73
2021/01/02 01:55:04;;;;;;;55.83;32.92;;;;;;;0.05;100.00;95307.16;1031767;28;20352;-72
2021/01/02 01:55:55;;;;;;;60.20;34.40;;;;;;;0.07;100.00;95307.94;1027761;28;20309;-73
2021/01/02 01:56:38;;;;;;;60.22;34.83;;;;;;;-0.01;100.00;95302.25;1019817;29;20267;-72
2021/01/02 01:57:09;;;;;;;67.13;35.15;;;;;;;0.00;100.00;95301.38;1027723;28;20285;-72
2021/01/02 01:57:40;;;;;;;57.47;34.72;;;;;;;-0.01;100.00;95304.84;1027773;28;20781;-73
2021/01/02 01:58:12;;;;;;;59.22;35.35;;;;;;;-0.03;100.00;95296.34;1023531;29;20103;-73
2021/01/02 01:59:00;;;;;;;65.43;38.05;;;;;;;0.01;100.00;95302.22;1019693;29;20752;-72
2021/01/02 01:59:50;;;;;;;63.60;35.17;;;;;;;-0.12;100.00;95282.06;1027905;28;20285;-73
2021/01/02 02:00:21;;;;;;;57.15;33.00;;;;;;;0.06;100.00;95303.72;1031657;28;20270;-73
2021/01/02 02:00:51;;;;;;;53.20;33.25;;;;;;;0.06;100.00;95306.28;1027808;28;20325;-73
2021/01/02 02:01:24;;;;;;;55.95;32.78;;;;;;;0.07;100.00;95305.38;1027735;28;20061;-73
2021/01/02 02:01:55;;;;;;;58.10;34.80;;;;;;;0.07;100.00;95307.09;1023758;29;20046;-72
2021/01/02 02:02:29;;;;;;;59.10;35.00;;;;;;;0.07;100.00;95301.97;1027545;28;20261;-73
2021/01/02 02:03:01;;;;;;;50.53;32.55;;;;;;;0.03;100.00;95306.38;1027781;28;20250;-73
2021/01/02 02:03:36;;;;;;;56.90;34.83;;;;;;;0.05;100.00;95304.59;1023702;28;20330;-72
2021/01/02 02:04:26;;;;;;;59.90;34.50;;;;;;;-0.02;100.00;95301.44;1023725;29;20327;-73
2021/01/02 02:05:08;;;;;;;54.05;32.67;;;;;;;0.09;100.00;95292.44;1027664;28;20262;-72
2021/01/02 02:05:50;;;;;;;49.97;32.05;;;;;;;0.14;100.00;95288.78;1023921;28;20075;-72
2021/01/02 02:06:30;;;;;;;51.33;30.90;;;;;;;0.15;100.00;95297.31;1024035;28;20290;-72
2021/01/02 02:07:01;;;;;;;47.50;30.90;;;;;;;0.22;100.00;95308.25;1027835;28;20254;-72
2021/01/02 02:07:41;;;;;;;50.92;32.30;;;;;;;0.22;100.00;95303.91;1031776;28;20034;-73
2021/01/02 02:08:12;;;;;;;45.55;30.15;;;;;;;0.17;100.00;95303.28;1027728;28;20058;-73
2021/01/02 02:08:43;;;;;;;51.00;31.80;;;;;;;0.12;100.00;95315.50;1031765;28;20110;-73
2021/01/02 02:09:20;;;;;;;51.03;33.65;;;;;;;0.08;100.00;95314.78;1027869;28;20802;-72
2021/01/02 02:09:59;;;;;;;48.60;30.88;;;;;;;0.01;100.00;95307.34;1027720;28;20784;-73
2021/01/02 02:10:33;;;;;;;50.80;30.23;;;;;;;0.05;100.00;95314.06;1019712;29;20359;-72
2021/01/02 02:11:05;;;;;;;53.42;33.05;;;;;;;0.06;100.00;95313.19;1027789;28;20337;-72
2021/01/02 02:11:36;;;;;;;52.90;33.22;;;;;;;0.05;100.00;95317.47;1029505;28;20262;-72
2021/01/02 02:12:15;;;;;;;53.63;32.25;;;;;;;-0.04;100.00;95308.38;1029635;29;20254;-71
2021/01/02 02:12:50;;;;;;;55.83;34.00;;;;;;;0.03;100.00;95315.84;1032266;28;20254;-73
2021/01/02 02:13:32;;;;;;;51.38;33.67;;;;;;;0.03;100.00;95315.84;1033915;28;20258;-73
2021/01/02 02:14:15;;;;;;;53.42;32.80;;;;;;;0.02;100.00;95317.59;1028633;28;20813;-72
2021/01/02 02:14:55;;;;;;;49.55;32.08;;;;;;;-0.01;100.00;95312.56;1032458;28;20328;-72
2021/01/02 02:15:27;;;;;;;53.80;33.15;;;;;;;-0.01;100.00;95310.00;1024712;28;20794;-72
2021/01/02 02:15:58;;;;;;;51.85;31.95;;;;;;;0.02;100.00;95314.16;1032870;28;20746;-73
2021/01/02 02:16:40;;;;;;;49.47;32.05;;;;;;;0.06;100.00;95316.59;1036740;28;20265;-72
2021/01/02 02:17:11;;;;;;;51.60;31.48;;;;;;;0.03;100.00;95308.97;1040695;28;20268;-72
2021/01/02 02:17:43;;;;;;;52.00;31.42;;;;;;;0.00;100.00;95311.69;1036728;28;20268;-73
2021/01/02 02:18:25;;;;;;;48.33;31.55;;;;;;;0.01;100.00;95317.66;1032636;28;20026;-72
2021/01/02 02:18:56;;;;;;;50.95;33.22;;;;;;;0.01;100.00;95323.63;1040552;28;20772;-72
2021/01/02 02:19:39;;;;;;;48.13;31.10;;;;;;;-0.03;100.00;95315.19;1036610;28;20307;-73
2021/01/02 02:20:16;;;;;;;49.58;31.10;;;;;;;0.02;100.00;95315.03;1036705;28;20271;-72
2021/01/02 02:20:48;;;;;;;48.20;30.30;;;;;;;-0.01;100.00;95321.13;1032523;28;20273;-72
2021/01/02 02:21:19;;;;;;;49.53;31.23;;;;;;;-0.01;100.00;95315.97;1036537;28;20347;-73
2021/01/02 02:21:50;;;;;;;49.70;32.17;;;;;;;0.03;100.00;95314.13;1032623;28;20773;-73
2021/01/02 02:22:23;;;;;;;53.40;32.00;;;;;;;0.03;100.00;95319.25;1044661;28;20506;-73
2021/01/02 02:23:13;;;;;;;51.00;32.33;;;;;;;0.06;100.00;95313.19;1032467;28;20022;-72
2021/01/02 02:23:50;;;;;;;48.20;30.05;;;;;;;0.06;100.00;95308.84;1032559;28;20333;-72
2021/01/02 02:24:21;;;;;;;47.22;31.42;;;;;;;0.09;100.00;95315.59;1036432;28;20249;-72
2021/01/02 02:24:53;;;;;;;47.97;31.52;;;;;;;0.08;100.00;95311.38;1036604;28;20253;-73
2021/01/02 02:25:24;;;;;;;50.53;30.65;;;;;;;0.05;100.00;95308.91;1040499;28;20056;-72
2021/01/02 02:26:04;;;;;;;51.05;32.80;;;;;;;0.05;100.00;95308.91;1036670;28;20271;-73
2021/01/02 02:26:36;;;;;;;51.70;33.00;;;;;;;0.04;100.00;95305.50;1036464;28;20058;-73
2021/01/02 02:27:07;;;;;;;52.10;32.72;;;;;;;0.01;100.00;95303.03;1036578;28;20018;-73
2021/01/02 02:27:40;;;;;;;47.58;31.80;;;;;;;0.02;100.00;95301.28;1040456;28;20287;-72
2021/01/02 02:28:20;;;;;;;52.03;34.10;;;;;;;0.04;100.00;95308.06;1040666;28;20772;-73
2021/01/02 02:29:03;;;;;;;49.22;31.77;;;;;;;0.05;100.00;95304.59;1032485;28;20276;-73
2021/01/02 02:29:37;;;;;;;47.25;31.83;;;;;;;0.05;100.00;95309.75;1036412;28;20026;-73
2021/01/02 02:30:11;;;;;;;50.45;32.67;;;;;;;0.08;100.00;95311.38;1036457;28;20621;-73
2021/01/02 02:30:42;;;;;;;52.50;32.00;;;;;;;0.07;100.00;95304.53;1032564;28;20654;-73
2021/01/02 02:31:14;;;;;;;51.90;32.53;;;;;;;0.06;100.00;95308.84;1036450;28;20249;-72
2021/01/02 02:31:46;;;;;;;49.63;31.42;;;;;;;0.02;100.00;95309.03;1032630;28;20396;-72
2021/01/02 02:32:17;;;;;;;46.47;31.85;;;;;;;0.05;100.00;95311.47;1032366;28;20328;-72
2021/01/02 02:32:48;;;;;;;50.05;33.90;;;;;;;-0.07;100.00;95297.38;1032458;28;20772;-73
2021/01/02 02:33:19;;;;;;;49.58;33.38;;;;;;;0.05;100.00;95309.75;1040552;28;20260;-73
2021/01/02 02:33:59;;;;;;;48.25;32.13;;;;;;;0.01;100.00;95308.19;1036399;28;20057;-72
2021/01/02 02:34:30;;;;;;;;;;;;;;;0.03;100.00;95308.97;1037049;28;20021;-72
2021/01/02 02:35:04;;;;;;;43.92;28.52;;;;;;;0.06;100.00;95310.59;1036650;28;19901;-73
2021/01/02 02:35:36;;;;;;;47.90;30.70;;;;;;;0.06;100.00;95308.84;1036608;28;20010;-73
2021/01/02 02:36:16;;;;;;;55.15;34.17;;;;;;;0.04;100.00;95308.06;1040600;28;20334;-72
2021/01/02 02:36:47;;;;;;;46.05;29.70;;;;;;;0.03;100.00;95298.66;1036482;28;20257;-73
2021/01/02 02:37:18;;;;;;;52.03;33.20;;;;;;;0.05;100.00;95314.88;1028528;28;20341;-72
2021/01/02 02:37:51;;;;;;;49.65;32.78;;;;;;;0.08;100.00;95306.22;1036414;28;20018;-73
2021/01/02 02:38:22;;;;;;;50.60;32.70;;;;;;;0.03;100.00;95301.25;1036442;28;20260;-73
2021/01/02 02:38:54;;;;;;;52.97;31.83;;;;;;;0.08;100.00;95303.66;1036574;28;20299;-73
2021/01/02 02:39:25;;;;;;;55.22;34.63;;;;;;;0.06;100.00;95295.97;1032488;28;20254;-72
2021/01/02 02:39:56;;;;;;;51.10;33.00;;;;;;;0.06;100.00;95300.28;1036440;28;20253;-73
2021/01/02 02:40:27;;;;;;;54.60;35.17;;;;;;;0.07;100.00;95297.63;1032412;28;20799;-72
2021/01/02 02:40:58;;;;;;;53.17;34.25;;;;;;;0.10;100.00;95301.84;1032479;28;20069;-72
2021/01/02 02:41:30;;;;;;;54.42;33.67;;;;;;;0.07;100.00;95307.94;1032386;28;20026;-72
2021/01/02 02:42:01;;;;;;;54.22;33.67;;;;;;;0.02;100.00;95298.72;1040514;28;20025;-72
2021/01/02 02:42:32;;;;;;;53.75;33.35;;;;;;;0.02;100.00;95302.16;1032499;28;20257;-72
2021/01/02 02:43:03;;;;;;;55.03;34.72;;;;;;;0.01;100.00;95297.06;1032409;28;20022;-74
2021/01/02 02:43:34;;;;;;;52.50;33.05;;;;;;;0.02;100.00;95294.44;1032433;28;20037;-73
2021/01/02 02:44:05;;;;;;;49.63;32.47;;;;;;;-0.01;100.00;95300.50;1036404;28;20402;-73
2021/01/02 02:44:37;;;;;;;45.05;30.35;;;;;;;0.04;100.00;95296.91;1032265;28;20121;-72
2021/01/02 02:45:11;;;;;;;44.90;30.35;;;;;;;0.09;100.00;95293.25;1036577;28;20255;-73
2021/01/02 02:45:42;;;;;;;51.97;33.58;;;;;;;0.08;100.00;95293.34;1036385;28;20264;-72
2021/01/02 02:46:14;;;;;;;48.88;32.63;;;;;;;0.07;100.00;95286.50;1044486;28;20259;-72
2021/01/02 02:46:45;;;;;;;51.25;31.88;;;;;;;0.11;100.00;95294.06;1040684;28;20025;-72
2021/01/02 02:47:18;;;;;;;45.38;30.08;;;;;;;0.06;100.00;95288.25;1040572;28;20263;-73
2021/01/02 02:47:49;;;;;;;41.72;28.75;;;;;;;0.05;100.00;95289.13;1040490;28;20794;-73